Terminal Aerodrome Forecast
Issued by NWS

Home | Current Version | Previous Version | Text Only | Print | Product List | Glossary On
Versions: 1 2 3 4 5 6 7 8 9 10 11 12
000
FTPQ31 PGUM 131133
TAFGUM
TAF

TAF
PKWA 131133Z 1312/1412 07017KT P6SM VCSH FEW018 SCT035 BKN070
      TEMPO 1312/1316 6SM -SHRA SCT017 BKN045 OVC120=

USA.gov is the U.S. government's official web portal to all federal, state and local government web resources and services.